createdAt,value
2015-10-23T00:00:29.593Z,1009.1
2015-10-23T00:01:29.315Z,1009
2015-10-23T00:02:29.271Z,1009.1
2015-10-23T00:03:29.649Z,1009
2015-10-23T00:04:29.354Z,1009.2
2015-10-23T00:05:28.951Z,1009
2015-10-23T00:06:29.063Z,1009
2015-10-23T00:07:29.003Z,1009.1
2015-10-23T00:08:29.146Z,1009.1
2015-10-23T00:09:29.087Z,1009.1
2015-10-23T00:10:28.839Z,1009.1
2015-10-23T00:11:28.779Z,1008.9
2015-10-23T00:12:28.720Z,1009.1
2015-10-23T00:13:28.691Z,1009.1
2015-10-23T00:14:28.631Z,1009.1
2015-10-23T00:15:28.806Z,1009.1
2015-10-23T00:16:28.528Z,1009
2015-10-23T00:17:28.468Z,1009
2015-10-23T00:18:28.423Z,1009.1
2015-10-23T00:19:28.378Z,1009.2
2015-10-23T00:20:28.304Z,1009.2
2015-10-23T00:21:28.260Z,1009.1
2015-10-23T00:22:28.434Z,1009
2015-10-23T00:23:28.156Z,1009.1
2015-10-23T00:24:28.096Z,1009.1
2015-10-23T00:25:28.036Z,1009.2
2015-10-23T00:26:27.992Z,1009.2
2015-10-23T00:27:27.963Z,1009.2
2015-10-23T00:28:27.873Z,1009.1
2015-10-23T00:29:27.828Z,1009.1
2015-10-23T00:30:27.769Z,1009.2
2015-10-23T00:31:28.162Z,1009.1
2015-10-23T00:32:27.680Z,1009.1
2015-10-23T00:33:27.621Z,1009.1
2015-10-23T00:34:27.591Z,1009.1
2015-10-23T00:35:27.502Z,1009.2
2015-10-23T00:36:27.472Z,1009
2015-10-23T00:37:27.397Z,1009.2
2015-10-23T00:38:27.352Z,1009.2
2015-10-23T00:39:27.497Z,1009.2
2015-10-23T00:40:27.249Z,1009.2
2015-10-23T00:41:27.205Z,1009.2
2015-10-23T00:42:27.379Z,1009.2
2015-10-23T00:43:27.085Z,1009.3
2015-10-23T00:44:27.244Z,1009.3
2015-10-23T00:45:27.013Z,1009.2
2015-10-23T00:46:27.156Z,1009.3
2015-10-23T00:47:26.893Z,1009.2
2015-10-23T00:48:26.833Z,1009.3
2015-10-23T00:49:26.773Z,1009.3
2015-10-23T00:50:26.713Z,1009.4
2015-10-23T00:51:26.670Z,1009.4
2015-10-23T00:52:26.626Z,1009.4
2015-10-23T00:53:26.566Z,1009.5
2015-10-23T00:54:26.740Z,1009.3
2015-10-23T00:55:26.681Z,1009.4
2015-10-23T00:56:26.402Z,1009.4
2015-10-23T00:57:26.295Z,1009.5
2015-10-23T00:58:26.720Z,1009.5
2015-10-23T00:59:26.253Z,1009.4
2015-10-23T01:00:26.194Z,1009.4
2015-10-23T01:01:26.134Z,1009.4
2015-10-23T01:02:26.090Z,1009.4
2015-10-23T01:03:26.265Z,1009.4
2015-10-23T01:04:26.205Z,1009.6
2015-10-23T01:05:25.942Z,1009.5
2015-10-23T01:06:25.866Z,1009.4
2015-10-23T01:07:25.839Z,1009.3
2015-10-23T01:08:25.779Z,1009.5
2015-10-23T01:09:25.719Z,1009.4
2015-10-23T01:10:25.659Z,1009.5
2015-10-23T01:11:25.615Z,1009.5
2015-10-23T01:12:25.789Z,1009.5
2015-10-23T01:13:25.711Z,1009.5
2015-10-23T01:14:25.464Z,1009.6
2015-10-23T01:15:25.404Z,1009.5
2015-10-23T01:16:25.345Z,1009.6
2015-10-23T01:17:25.284Z,1009.6
2015-10-23T01:18:28.319Z,1009.5
2015-10-23T01:19:25.196Z,1009.6
2015-10-23T01:20:25.136Z,1009.5
2015-10-23T01:21:24.342Z,1009.7
2015-10-23T01:22:25.033Z,1009.6
2015-10-23T01:23:24.988Z,1009.7
2015-10-23T01:24:24.928Z,1009.7
2015-10-23T01:25:24.884Z,1009.6
2015-10-23T01:26:24.825Z,1009.6
2015-10-23T01:27:24.765Z,1009.8
2015-10-23T01:28:24.720Z,1009.7
2015-10-23T01:29:24.660Z,1009.7
2015-10-23T01:30:24.632Z,1009.7
2015-10-23T01:31:24.557Z,1009.7
2015-10-23T01:32:24.513Z,1009.7
2015-10-23T01:33:24.453Z,1009.7
2015-10-23T01:34:24.409Z,1009.8
2015-10-23T01:35:24.349Z,1009.8
2015-10-23T01:36:24.320Z,1009.6
2015-10-23T01:37:24.479Z,1009.7
2015-10-23T01:38:24.435Z,1009.8
2015-10-23T01:39:24.141Z,1009.7
2015-10-23T01:40:24.082Z,1009.6
2015-10-23T01:41:24.037Z,1009.7
2015-10-23T01:42:23.977Z,1009.7
2015-10-23T01:43:23.934Z,1009.8
2015-10-23T01:44:23.873Z,1009.8
2015-10-23T01:45:23.815Z,1009.7
2015-10-23T01:46:23.754Z,1009.8
2015-10-23T01:47:23.710Z,1009.8
2015-10-23T01:48:23.665Z,1009.9
2015-10-23T01:49:23.606Z,1009.7
2015-10-23T01:50:23.546Z,1009.8
2015-10-23T01:51:23.737Z,1009.7
2015-10-23T01:52:23.473Z,1009.7
2015-10-23T01:53:23.398Z,1009.7
2015-10-23T01:54:23.369Z,1009.7
2015-10-23T01:55:23.529Z,1009.8
2015-10-23T01:56:23.234Z,1009.8
2015-10-23T01:57:23.175Z,1009.8
2015-10-23T01:58:23.130Z,1009.7
2015-10-23T01:59:23.070Z,1009.8
2015-10-23T02:00:23.026Z,1009.8
2015-10-23T02:01:22.983Z,1009.8
2015-10-23T02:02:22.922Z,1009.8
2015-10-23T02:03:22.863Z,1009.8
2015-10-23T02:04:22.819Z,1009.8
2015-10-23T02:05:22.774Z,1009.8
2015-10-23T02:06:22.699Z,1009.7
2015-10-23T02:07:22.686Z,1009.8
2015-10-23T02:08:22.611Z,1009.8
2015-10-23T02:09:22.551Z,1010
2015-10-23T02:10:22.507Z,1009.8
2015-10-23T02:11:22.447Z,1009.9
2015-10-23T02:12:22.403Z,1009.9
2015-10-23T02:13:22.343Z,1010
2015-10-23T02:14:22.721Z,1009.9
2015-10-23T02:15:22.239Z,1009.9
2015-10-23T02:16:22.179Z,1009.9
2015-10-23T02:17:22.135Z,1009.9
2015-10-23T02:18:22.075Z,1010.1
2015-10-23T02:19:22.032Z,1010
2015-10-23T02:20:21.972Z,1010
2015-10-23T02:21:21.927Z,1010
2015-10-23T02:22:22.086Z,1010
2015-10-23T02:23:21.808Z,1010
2015-10-23T02:24:21.967Z,1010.1
2015-10-23T02:25:21.704Z,1010.1
2015-10-23T02:26:21.660Z,1010.1
2015-10-23T02:27:21.584Z,1010.1
2015-10-23T02:28:21.743Z,1010.2
2015-10-23T02:29:21.496Z,1010.1
2015-10-23T02:30:21.439Z,1010.2
2015-10-23T02:31:21.396Z,1010.1
2015-10-23T02:32:21.333Z,1010.2
2015-10-23T02:33:21.289Z,1010.1
2015-10-23T02:34:21.464Z,1010.1
2015-10-23T02:35:21.186Z,1010.2
2015-10-23T02:36:21.125Z,1010.2
2015-10-23T02:37:21.081Z,1010.2
2015-10-23T02:38:21.005Z,1010.3
2015-10-23T02:39:20.961Z,1010.3
2015-10-23T02:40:20.918Z,1010.3
2015-10-23T02:41:20.858Z,1010.3
2015-10-23T02:42:20.813Z,1010.4
2015-10-23T02:43:20.988Z,1010.3
2015-10-23T02:44:20.897Z,1010.3
2015-10-23T02:45:20.635Z,1010.3
2015-10-23T02:46:19.824Z,1010.4
2015-10-23T02:47:20.546Z,1010.4
2015-10-23T02:48:20.486Z,1010.4
2015-10-23T02:49:20.443Z,1010.3
2015-10-23T02:50:20.382Z,1010.3
2015-10-23T02:51:20.338Z,1010.3
2015-10-23T02:52:20.482Z,1010.4
2015-10-23T02:53:20.234Z,1010.4
2015-10-23T02:54:20.175Z,1010.5
2015-10-23T02:55:19.365Z,1010.4
2015-10-23T02:56:20.055Z,1010.4
2015-10-23T02:57:20.010Z,1010.4
2015-10-23T02:58:19.967Z,1010.5
2015-10-23T02:59:19.907Z,1010.5
2015-10-23T03:00:19.878Z,1010.5
2015-10-23T03:01:19.787Z,1010.5
2015-10-23T03:02:19.743Z,1010.6
2015-10-23T03:03:19.527Z,1010.6
2015-10-23T03:04:19.639Z,1010.7
2015-10-23T03:05:19.579Z,1010.7
2015-10-23T03:06:19.566Z,1010.7
2015-10-23T03:07:19.473Z,1010.7
2015-10-23T03:08:19.414Z,1010.8
2015-10-23T03:09:19.341Z,1010.7
2015-10-23T03:10:19.500Z,1010.7
2015-10-23T03:11:19.208Z,1010.7
2015-10-23T03:12:19.138Z,1010.8
2015-10-23T03:13:19.103Z,1010.8
2015-10-23T03:14:19.226Z,1010.9
2015-10-23T03:15:19.005Z,1010.9
2015-10-23T03:16:18.987Z,1010.9
2015-10-23T03:17:18.861Z,1010.9
2015-10-23T03:18:19.003Z,1010.9
2015-10-23T03:19:18.738Z,1010.9
2015-10-23T03:20:18.691Z,1010.9
2015-10-23T03:21:18.692Z,1010.9
2015-10-23T03:22:18.599Z,1010.8
2015-10-23T03:23:18.524Z,1010.9
2015-10-23T03:24:18.480Z,1010.9
2015-10-23T03:25:18.419Z,1011
2015-10-23T03:26:18.375Z,1011
2015-10-23T03:27:18.315Z,1010.9
2015-10-23T03:28:18.489Z,1010.9
2015-10-23T03:29:18.210Z,1010.9
2015-10-23T03:30:18.290Z,1010.8
2015-10-23T03:31:18.106Z,1010.9
2015-10-23T03:32:18.280Z,1010.9
2015-10-23T03:33:18.000Z,1010.9
2015-10-23T03:34:17.941Z,1010.9
2015-10-23T03:35:17.897Z,1011.1
2015-10-23T03:36:17.853Z,1011.1
2015-10-23T03:37:17.794Z,1010.9
2015-10-23T03:38:17.733Z,1010.9
2015-10-23T03:39:17.705Z,1010.9
2015-10-23T03:40:17.614Z,1010.9
2015-10-23T03:41:17.586Z,1011.1
2015-10-23T03:42:17.525Z,1011
2015-10-23T03:43:17.482Z,1010.9
2015-10-23T03:44:17.406Z,1011
2015-10-23T03:45:17.362Z,1010.9
2015-10-23T03:46:17.536Z,1011
2015-10-23T03:47:16.493Z,1011.1
2015-10-23T03:48:17.198Z,1011
2015-10-23T03:49:17.669Z,1011
2015-10-23T03:50:17.094Z,1011
2015-10-23T03:51:17.050Z,1011.1
2015-10-23T03:52:16.990Z,1011.1
2015-10-23T03:53:16.946Z,1011
2015-10-23T03:54:16.886Z,1011
2015-10-23T03:55:16.823Z,1011
2015-10-23T03:56:16.779Z,1011.2
2015-10-23T03:57:16.720Z,1011.1
2015-10-23T03:58:16.691Z,1011.1
2015-10-23T03:59:16.615Z,1011
2015-10-23T04:00:16.571Z,1011.2
2015-10-23T04:01:16.512Z,1011.2
2015-10-23T04:02:16.468Z,1011.1
2015-10-23T04:03:16.392Z,1011.1
2015-10-23T04:04:16.365Z,1011.2
2015-10-23T04:05:16.289Z,1011.2
2015-10-23T04:06:16.260Z,1011.1
2015-10-23T04:07:16.200Z,1011.2
2015-10-23T04:08:16.172Z,1011.1
2015-10-23T04:10:16.053Z,1011.2
2015-10-23T04:11:16.180Z,1011.2
2015-10-23T04:12:15.933Z,1011
2015-10-23T04:13:16.106Z,1011.1
2015-10-23T04:14:15.829Z,1011.2
2015-10-23T04:15:15.784Z,1011.1
2015-10-23T04:16:15.944Z,1011.2
2015-10-23T04:17:15.665Z,1011.1
2015-10-23T04:18:15.621Z,1011.1
2015-10-23T04:19:15.405Z,1011.2
2015-10-23T04:20:15.517Z,1011.1
2015-10-23T04:21:15.441Z,1011.1
2015-10-23T04:22:15.397Z,1011.1
2015-10-23T04:23:15.353Z,1011.1
2015-10-23T04:24:15.294Z,1011.1
2015-10-23T04:25:15.233Z,1011.1
2015-10-23T04:26:15.189Z,1011.1
2015-10-23T04:27:15.129Z,1011.2
2015-10-23T04:28:15.069Z,1011.2
2015-10-23T04:29:15.025Z,1011.2
2015-10-23T04:30:14.966Z,1011.1
2015-10-23T04:31:15.109Z,1011.1
2015-10-23T04:32:14.862Z,1011.2
2015-10-23T04:33:14.802Z,1011.2
2015-10-23T04:34:14.757Z,1011.2
2015-10-23T04:35:14.698Z,1011.2
2015-10-23T04:36:14.655Z,1011.2
2015-10-23T04:37:14.610Z,1011.1
2015-10-23T04:38:14.535Z,1011.2
2015-10-23T04:39:14.506Z,1011.1
2015-10-23T04:40:14.430Z,1011.3
2015-10-23T04:41:14.402Z,1011.3
2015-10-23T04:42:14.326Z,1011.2
2015-10-23T04:43:14.298Z,1011.2
2015-10-23T04:44:14.101Z,1011.3
2015-10-23T04:45:14.179Z,1011.2
2015-10-23T04:46:14.236Z,1011.3
2015-10-23T04:47:14.114Z,1011.4
2015-10-23T04:48:14.102Z,1011.3
2015-10-23T04:49:13.964Z,1011.4
2015-10-23T04:50:13.905Z,1011.4
2015-10-23T04:51:14.095Z,1011.2
2015-10-23T04:52:13.800Z,1011.3
2015-10-23T04:53:13.974Z,1011.3
2015-10-23T04:54:13.696Z,1011.3
2015-10-23T04:55:13.621Z,1011.3
2015-10-23T04:56:13.576Z,1011.2
2015-10-23T04:57:13.517Z,1011.3
2015-10-23T04:58:13.473Z,1011.3
2015-10-23T04:59:13.413Z,1011.3
2015-10-23T05:00:13.369Z,1011.4
2015-10-23T05:01:13.325Z,1011.4
2015-10-23T05:02:13.452Z,1011.3
2015-10-23T05:03:13.205Z,1011.3
2015-10-23T05:04:13.145Z,1011.4
2015-10-23T05:05:13.101Z,1011.4
2015-10-23T05:06:13.041Z,1011.4
2015-10-23T05:07:12.998Z,1011.4
2015-10-23T05:08:12.938Z,1011.4
2015-10-23T05:09:12.893Z,1011.4
2015-10-23T05:10:12.849Z,1011.4
2015-10-23T05:11:12.773Z,1011.4
2015-10-23T05:12:12.729Z,1011.5
2015-10-23T05:13:12.873Z,1011.5
2015-10-23T05:14:12.609Z,1011.5
2015-10-23T05:15:12.581Z,1011.4
2015-10-23T05:16:12.521Z,1011.5
2015-10-23T05:17:12.649Z,1011.5
2015-10-23T05:18:12.399Z,1011.5
2015-10-23T05:19:12.339Z,1011.5
2015-10-23T05:20:12.295Z,1011.6
2015-10-23T05:21:12.282Z,1011.4
2015-10-23T05:22:12.192Z,1011.5
2015-10-23T05:23:12.147Z,1011.6
2015-10-23T05:24:12.087Z,1011.6
2015-10-23T05:25:12.059Z,1011.6
2015-10-23T05:26:11.983Z,1011.5
2015-10-23T05:27:11.924Z,1011.6
2015-10-23T05:28:11.863Z,1011.5
2015-10-23T05:29:11.820Z,1011.5
2015-10-23T05:30:11.760Z,1011.7
2015-10-23T05:31:11.699Z,1011.7
2015-10-23T05:32:11.671Z,1011.6
2015-10-23T05:33:11.596Z,1011.7
2015-10-23T05:34:11.552Z,1011.6
2015-10-23T05:35:11.492Z,1011.7
2015-10-23T05:36:11.448Z,1011.6
2015-10-23T05:37:11.388Z,1011.7
2015-10-23T05:38:11.344Z,1011.8
2015-10-23T05:39:11.284Z,1011.8
2015-10-23T05:40:11.241Z,1011.6
2015-10-23T05:41:11.181Z,1011.8
2015-10-23T05:42:11.355Z,1011.7
2015-10-23T05:43:11.076Z,1011.9
2015-10-23T05:44:11.017Z,1011.9
2015-10-23T05:45:10.973Z,1011.8
2015-10-23T05:46:10.928Z,1012
2015-10-23T05:47:10.869Z,1011.9
2015-10-23T05:48:10.824Z,1011.8
2015-10-23T05:49:10.749Z,1011.9
2015-10-23T05:50:10.705Z,1011.9
2015-10-23T05:51:10.645Z,1011.8
2015-10-23T05:52:10.820Z,1011.9
2015-10-23T05:53:10.541Z,1011.9
2015-10-23T05:54:10.482Z,1012
2015-10-23T05:55:10.437Z,1011.9
2015-10-23T05:56:10.393Z,1011.9
2015-10-23T05:57:10.333Z,1012.1
2015-10-23T05:58:10.508Z,1012.1
2015-10-23T05:59:10.229Z,1012.1
2015-10-23T06:00:10.170Z,1012
2015-10-23T06:01:10.126Z,1012.1
2015-10-23T06:02:10.081Z,1012.1
2015-10-23T06:03:10.006Z,1012.1
2015-10-23T06:04:09.962Z,1012.1
2015-10-23T06:05:09.902Z,1012
2015-10-23T06:06:09.842Z,1012.1
2015-10-23T06:07:09.798Z,1012.1
2015-10-23T06:08:09.973Z,1012.1
2015-10-23T06:09:09.694Z,1012.1
2015-10-23T06:10:09.634Z,1012.1
2015-10-23T06:11:09.669Z,1012
2015-10-23T06:12:09.531Z,1012.1
2015-10-23T06:13:09.517Z,1012
2015-10-23T06:14:09.411Z,1012
2015-10-23T06:15:09.366Z,1012.1
2015-10-23T06:16:09.370Z,1012.1
2015-10-23T06:17:09.278Z,1012
2015-10-23T06:18:09.203Z,1012.1
2015-10-23T06:19:09.159Z,1012
2015-10-23T06:20:09.302Z,1012.1
2015-10-23T06:21:09.055Z,1012.1
2015-10-23T06:22:09.011Z,1012.2
2015-10-23T06:23:08.952Z,1012.1
2015-10-23T06:24:08.907Z,1012.2
2015-10-23T06:25:08.832Z,1012.2
2015-10-23T06:26:08.788Z,1012.2
2015-10-23T06:27:08.727Z,1012.1
2015-10-23T06:28:08.683Z,1012.2
2015-10-23T06:29:08.858Z,1012.3
2015-10-23T06:30:08.579Z,1012
2015-10-23T06:31:08.519Z,1012.2
2015-10-23T06:32:08.476Z,1012.2
2015-10-23T06:33:08.415Z,1012.1
2015-10-23T06:34:08.371Z,1012.2
2015-10-23T06:35:08.327Z,1012.1
2015-10-23T06:36:08.252Z,1012.1
2015-10-23T06:37:08.224Z,1012.1
2015-10-23T06:38:08.146Z,1012
2015-10-23T06:39:08.117Z,1012
2015-10-23T06:40:08.041Z,1012.1
2015-10-23T06:41:08.185Z,1012.1
2015-10-23T06:42:07.938Z,1012
2015-10-23T06:43:07.893Z,1012.1
2015-10-23T06:44:07.834Z,1012.1
2015-10-23T06:45:07.789Z,1012.1
2015-10-23T06:46:07.729Z,1012.1
2015-10-23T06:47:07.685Z,1012.2
2015-10-23T06:48:07.845Z,1012.3
2015-10-23T06:49:07.565Z,1012.2
2015-10-23T06:50:07.709Z,1012.2
2015-10-23T06:51:07.461Z,1012.3
2015-10-23T06:52:07.636Z,1012.2
2015-10-23T06:53:07.358Z,1012.1
2015-10-23T06:54:07.298Z,1012.2
2015-10-23T06:55:07.239Z,1012.2
2015-10-23T06:56:07.194Z,1012.4
2015-10-23T06:57:07.150Z,1012.3
2015-10-23T06:58:07.090Z,1012.3
2015-10-23T06:59:07.047Z,1012.3
2015-10-23T07:00:06.986Z,1012.3
2015-10-23T07:01:06.942Z,1012.2
2015-10-23T07:02:06.883Z,1012.3
2015-10-23T07:03:06.838Z,1012.2
2015-10-23T07:04:06.778Z,1012.3
2015-10-23T07:05:06.719Z,1012.3
2015-10-23T07:06:06.674Z,1012.2
2015-10-23T07:07:06.614Z,1012.3
2015-10-23T07:08:06.758Z,1012.3
2015-10-23T07:09:06.511Z,1012.2
2015-10-23T07:10:06.467Z,1012.2
2015-10-23T07:11:06.422Z,1012.3
2015-10-23T07:12:06.378Z,1012.3
2015-10-23T07:13:06.303Z,1012.2
2015-10-23T07:14:06.258Z,1012.3
2015-10-23T07:15:06.199Z,1012.2
2015-10-23T07:16:06.139Z,1012.2
2015-10-23T07:17:06.095Z,1012.2
2015-10-23T07:18:06.035Z,1012.2
2015-10-23T07:19:05.976Z,1012.1
2015-10-23T07:20:05.932Z,1012.3
2015-10-23T07:21:05.887Z,1012.2
2015-10-23T07:22:05.827Z,1012.3
2015-10-23T07:23:05.783Z,1012.3
2015-10-23T07:24:05.707Z,1012.3
2015-10-23T07:25:05.664Z,1012.3
2015-10-23T07:26:04.870Z,1012.4
2015-10-23T07:27:05.560Z,1012.3
2015-10-23T07:28:05.735Z,1012.4
2015-10-23T07:29:05.456Z,1012.4
2015-10-23T07:30:05.397Z,1012.4
2015-10-23T07:31:05.352Z,1012.3
2015-10-23T07:32:05.292Z,1012.3
2015-10-23T07:33:05.232Z,1012.3
2015-10-23T07:34:05.188Z,1012.3
2015-10-23T07:35:05.129Z,1012.3
2015-10-23T07:36:05.084Z,1012.3
2015-10-23T07:37:05.025Z,1012.3
2015-10-23T07:38:04.981Z,1012.3
2015-10-23T07:39:04.921Z,1012.3
2015-10-23T07:40:04.861Z,1012.5
2015-10-23T07:41:04.801Z,1012.3
2015-10-23T07:42:04.773Z,1012.3
2015-10-23T07:43:04.712Z,1012.4
2015-10-23T07:44:04.670Z,1012.3
2015-10-23T07:45:04.593Z,1012.5
2015-10-23T07:46:04.549Z,1012.5
2015-10-23T07:47:04.489Z,1012.4
2015-10-23T07:48:04.445Z,1012.5
2015-10-23T07:49:04.400Z,1012.5
2015-10-23T07:50:04.575Z,1012.5
2015-10-23T07:51:04.281Z,1012.4
2015-10-23T07:52:04.253Z,1012.5
2015-10-23T07:53:04.177Z,1012.5
2015-10-23T07:54:04.149Z,1012.5
2015-10-23T07:55:04.089Z,1012.5
2015-10-23T07:56:04.011Z,1012.5
2015-10-23T07:57:03.966Z,1012.6
2015-10-23T07:58:04.142Z,1012.5
2015-10-23T07:59:03.863Z,1012.5
2015-10-23T08:00:03.803Z,1012.5
2015-10-23T08:01:03.758Z,1012.6
2015-10-23T08:02:03.902Z,1012.5
2015-10-23T08:03:03.499Z,1012.6
2015-10-23T08:04:03.596Z,1012.7
2015-10-23T08:05:03.551Z,1012.6
2015-10-23T08:06:03.507Z,1012.6
2015-10-23T08:07:03.447Z,1012.8
2015-10-23T08:08:03.388Z,1012.6
2015-10-23T08:09:03.328Z,1012.6
2015-10-23T08:10:03.283Z,1012.7
2015-10-23T08:11:03.224Z,1012.6
2015-10-23T08:12:03.179Z,1012.7
2015-10-23T08:13:03.104Z,1012.6
2015-10-23T08:14:03.076Z,1012.7
2015-10-23T08:15:03.016Z,1012.7
2015-10-23T08:16:03.160Z,1012.7
2015-10-23T08:17:02.912Z,1012.5
2015-10-23T08:18:02.852Z,1012.7
2015-10-23T08:19:02.824Z,1012.7
2015-10-23T08:20:02.967Z,1012.7
2015-10-23T08:21:02.704Z,1012.8
2015-10-23T08:22:02.629Z,1012.8
2015-10-23T08:23:02.773Z,1012.7
2015-10-23T08:24:02.541Z,1012.8
2015-10-23T08:25:02.482Z,1012.8
2015-10-23T08:26:02.421Z,1012.9
2015-10-23T08:27:02.393Z,1013
2015-10-23T08:28:02.552Z,1012.9
2015-10-23T08:29:02.274Z,1013
2015-10-23T08:30:02.213Z,1012.9
2015-10-23T08:31:02.153Z,1012.9
2015-10-23T08:32:02.109Z,1012.8
2015-10-23T08:33:02.051Z,1012.8
2015-10-23T08:34:02.006Z,1012.9
2015-10-23T08:35:01.946Z,1013
2015-10-23T08:36:01.887Z,1013
2015-10-23T08:37:01.827Z,1012.8
2015-10-23T08:38:01.782Z,1012.8
2015-10-23T08:39:01.738Z,1012.9
2015-10-23T08:40:01.679Z,1013
2015-10-23T08:41:01.635Z,1013
2015-10-23T08:42:01.575Z,1013
2015-10-23T08:43:01.531Z,1013
2015-10-23T08:44:01.455Z,1012.9
2015-10-23T08:45:01.426Z,1013
2015-10-23T08:46:01.601Z,1013
2015-10-23T08:47:01.320Z,1013
2015-10-23T08:48:01.259Z,1013
2015-10-23T08:49:01.201Z,1013
2015-10-23T08:50:01.156Z,1013
2015-10-23T08:51:01.097Z,1013
2015-10-23T08:52:01.037Z,1013
2015-10-23T08:53:01.196Z,1013
2015-10-23T08:54:00.948Z,1013.1
2015-10-23T08:55:00.889Z,1013
2015-10-23T08:56:00.063Z,1013.1
2015-10-23T08:57:00.800Z,1013.1
2015-10-23T08:58:00.741Z,1013.1
2015-10-23T08:59:00.681Z,1013.1
2015-10-23T09:00:00.637Z,1013.2
2015-10-23T09:01:00.577Z,1013.3
2015-10-23T09:02:00.533Z,1013.1
2015-10-23T09:03:00.472Z,1013.3
2015-10-23T09:04:00.413Z,1013.2
2015-10-23T09:05:00.386Z,1013.4
2015-10-23T09:06:00.309Z,1013.3
2015-10-23T09:07:00.265Z,1013.3
2015-10-23T09:08:00.206Z,1013.2
2015-10-23T09:09:00.147Z,1013.2
2015-10-23T09:10:00.117Z,1013.3
2015-10-23T09:11:00.261Z,1013.3
2015-10-23T09:11:59.998Z,1013.3
2015-10-23T09:12:59.938Z,1013.3
2015-10-23T09:13:59.894Z,1013.3
2015-10-23T09:14:59.849Z,1013.4
2015-10-23T09:16:00.025Z,1013.2
2015-10-23T09:16:59.747Z,1013.3
2015-10-23T09:17:59.687Z,1013.3
2015-10-23T09:18:59.830Z,1013.3
2015-10-23T09:19:59.583Z,1013.3
2015-10-23T09:20:59.522Z,1013.3
2015-10-23T09:21:59.478Z,1013.5
2015-10-23T09:22:59.435Z,1013.4
2015-10-23T09:23:59.374Z,1013.5
2015-10-23T09:24:59.330Z,1013.5
2015-10-23T09:25:59.271Z,1013.4
2015-10-23T09:26:59.211Z,1013.5
2015-10-23T09:27:59.151Z,1013.3
2015-10-23T09:28:59.294Z,1013.4
2015-10-23T09:29:59.063Z,1013.5
2015-10-23T09:30:59.191Z,1013.4
2015-10-23T09:31:58.959Z,1013.3
2015-10-23T09:32:58.899Z,1013.4
2015-10-23T09:33:58.854Z,1013.5
2015-10-23T09:34:58.796Z,1013.3
2015-10-23T09:35:58.751Z,1013.5
2015-10-23T09:36:58.688Z,1013.5
2015-10-23T09:37:58.629Z,1013.5
2015-10-23T09:38:58.569Z,1013.6
2015-10-23T09:39:58.524Z,1013.5
2015-10-23T09:40:58.481Z,1013.5
2015-10-23T09:41:58.484Z,1013.5
2015-10-23T09:42:58.376Z,1013.6
2015-10-23T09:43:58.317Z,1013.6
2015-10-23T09:44:58.258Z,1013.5
2015-10-23T09:45:58.213Z,1013.6
2015-10-23T09:46:58.154Z,1013.7
2015-10-23T09:47:58.109Z,1013.6
2015-10-23T09:48:58.049Z,1013.6
2015-10-23T09:49:58.209Z,1013.6
2015-10-23T09:50:57.945Z,1013.6
2015-10-23T09:51:57.901Z,1013.6
2015-10-23T09:52:57.842Z,1013.7
2015-10-23T09:53:57.798Z,1013.6
2015-10-23T09:54:57.738Z,1013.5
2015-10-23T09:55:57.694Z,1013.6
2015-10-23T09:56:57.665Z,1013.6
2015-10-23T09:57:57.629Z,1013.6
2015-10-23T09:58:57.741Z,1013.5
2015-10-23T09:59:57.479Z,1013.6
2015-10-23T10:00:57.434Z,1013.5
2015-10-23T10:01:57.375Z,1013.4
2015-10-23T10:02:57.331Z,1013.4
2015-10-23T10:03:57.271Z,1013.5
2015-10-23T10:04:57.461Z,1013.4
2015-10-23T10:05:57.182Z,1013.3
2015-10-23T10:06:57.122Z,1013.5
2015-10-23T10:07:57.063Z,1013.4
2015-10-23T10:08:57.019Z,1013.4
2015-10-23T10:09:57.193Z,1013.5
2015-10-23T10:10:56.915Z,1013.4
2015-10-23T10:11:56.855Z,1013.5
2015-10-23T10:12:56.811Z,1013.6
2015-10-23T10:13:56.751Z,1013.5
2015-10-23T10:14:56.691Z,1013.3
2015-10-23T10:15:56.647Z,1013.5
2015-10-23T10:16:56.603Z,1013.6
2015-10-23T10:17:56.543Z,1013.6
2015-10-23T10:18:56.483Z,1013.6
2015-10-23T10:19:56.455Z,1013.5
2015-10-23T10:20:56.395Z,1013.5
2015-10-23T10:21:56.336Z,1013.5
2015-10-23T10:22:56.276Z,1013.5
2015-10-23T10:23:56.231Z,1013.4
2015-10-23T10:24:56.200Z,1013.5
2015-10-23T10:25:56.125Z,1013.4
2015-10-23T10:26:56.066Z,1013.4
2015-10-23T10:27:56.021Z,1013.4
2015-10-23T10:28:55.961Z,1013.5
2015-10-23T10:29:55.916Z,1013.4
2015-10-23T10:30:56.092Z,1013.3
2015-10-23T10:31:56.016Z,1013.3
2015-10-23T10:32:55.753Z,1013.4
2015-10-23T10:33:55.710Z,1013.4
2015-10-23T10:34:55.650Z,1013.4
2015-10-23T10:35:55.591Z,1013.6
2015-10-23T10:36:55.546Z,1013.5
2015-10-23T10:37:55.502Z,1013.5
2015-10-23T10:38:55.442Z,1013.5
2015-10-23T10:39:55.397Z,1013.5
2015-10-23T10:40:55.338Z,1013.4
2015-10-23T10:41:55.294Z,1013.4
2015-10-23T10:42:55.235Z,1013.5
2015-10-23T10:43:55.613Z,1013.5
2015-10-23T10:44:55.130Z,1013.4
2015-10-23T10:45:55.321Z,1013.5
2015-10-23T10:46:55.026Z,1013.5
2015-10-23T10:47:54.982Z,1013.5
2015-10-23T10:48:54.922Z,1013.5
2015-10-23T10:49:54.878Z,1013.5
2015-10-23T10:50:54.818Z,1013.5
2015-10-23T10:51:54.759Z,1013.5
2015-10-23T10:52:54.715Z,1013.4
2015-10-23T10:53:54.686Z,1013.6
2015-10-23T10:54:54.610Z,1013.4
2015-10-23T10:55:54.551Z,1013.5
2015-10-23T10:56:54.741Z,1013.6
2015-10-23T10:57:54.447Z,1013.6
2015-10-23T10:58:54.404Z,1013.5
2015-10-23T10:59:54.343Z,1013.5
2015-10-23T11:00:54.299Z,1013.6
2015-10-23T11:01:54.240Z,1013.4
2015-10-23T11:02:54.195Z,1013.3
2015-10-23T11:03:54.152Z,1013.4
2015-10-23T11:04:54.091Z,1013.5
2015-10-23T11:05:54.031Z,1013.6
2015-10-23T11:06:54.222Z,1013.6
2015-10-23T11:07:53.925Z,1013.4
2015-10-23T11:08:53.882Z,1013.5
2015-10-23T11:09:53.822Z,1013.3
2015-10-23T11:10:54.013Z,1013.4
2015-10-23T11:11:53.716Z,1013.4
2015-10-23T11:12:53.671Z,1013.5
2015-10-23T11:13:53.610Z,1013.4
2015-10-23T11:14:53.568Z,1013.5
2015-10-23T11:15:53.507Z,1013.6
2015-10-23T11:16:53.463Z,1013.6
2015-10-23T11:17:53.403Z,1013.7
2015-10-23T11:18:53.359Z,1013.7
2015-10-23T11:19:53.299Z,1013.5
2015-10-23T11:20:53.255Z,1013.4
2015-10-23T11:21:53.200Z,1013.4
2015-10-23T11:22:53.140Z,1013.6
2015-10-23T11:23:53.096Z,1013.5
2015-10-23T11:24:53.474Z,1013.6
2015-10-23T11:25:52.993Z,1013.7
2015-10-23T11:26:53.151Z,1013.7
2015-10-23T11:27:52.889Z,1013.6
2015-10-23T11:28:52.845Z,1013.7
2015-10-23T11:29:52.988Z,1013.7
2015-10-23T11:30:52.726Z,1013.8
2015-10-23T11:31:52.681Z,1013.6
2015-10-23T11:32:52.637Z,1013.7
2015-10-23T11:33:52.577Z,1013.7
2015-10-23T11:34:52.517Z,1013.8
2015-10-23T11:35:52.473Z,1013.6
2015-10-23T11:36:52.632Z,1013.7
2015-10-23T11:37:52.369Z,1013.7
2015-10-23T11:38:52.310Z,1013.6
2015-10-23T11:39:52.265Z,1013.6
2015-10-23T11:40:52.222Z,1013.6
2015-10-23T11:41:52.364Z,1013.8
2015-10-23T11:42:52.117Z,1013.7
2015-10-23T11:43:52.058Z,1013.7
2015-10-23T11:44:52.014Z,1013.7
2015-10-23T11:45:51.954Z,1013.7
2015-10-23T11:46:51.160Z,1013.7
2015-10-23T11:47:51.850Z,1013.7
2015-10-23T11:48:51.790Z,1013.8
2015-10-23T11:49:51.746Z,1013.7
2015-10-23T11:50:51.686Z,1013.6
2015-10-23T11:51:51.627Z,1013.6
2015-10-23T11:52:51.583Z,1013.6
2015-10-23T11:53:51.538Z,1013.7
2015-10-23T11:54:51.478Z,1013.7
2015-10-23T11:55:51.669Z,1013.6
2015-10-23T11:56:51.375Z,1013.6
2015-10-23T11:57:51.331Z,1013.5
2015-10-23T11:58:51.271Z,1013.4
2015-10-23T11:59:51.445Z,1013.6
2015-10-23T12:00:51.167Z,1013.6
2015-10-23T12:01:51.341Z,1013.5
2015-10-23T12:02:51.060Z,1013.7
2015-10-23T12:03:51.016Z,1013.6
2015-10-23T12:04:50.955Z,1013.6
2015-10-23T12:05:50.896Z,1013.7
2015-10-23T12:06:50.852Z,1013.5
2015-10-23T12:07:50.793Z,1013.7
2015-10-23T12:08:50.749Z,1013.6
2015-10-23T12:09:50.891Z,1013.8
2015-10-23T12:10:50.832Z,1013.7
2015-10-23T12:11:50.585Z,1013.6
2015-10-23T12:12:50.774Z,1013.6
2015-10-23T12:13:50.681Z,1013.7
2015-10-23T12:14:50.423Z,1013.6
2015-10-23T12:15:50.370Z,1013.6
2015-10-23T12:16:50.534Z,1013.7
2015-10-23T12:17:50.230Z,1013.7
2015-10-23T12:18:50.180Z,1013.4
2015-10-23T12:19:50.116Z,1013.6
2015-10-23T12:20:50.068Z,1013.7
2015-10-23T12:21:50.005Z,1013.7
2015-10-23T12:22:49.957Z,1013.7
2015-10-23T12:23:49.911Z,1013.7
2015-10-23T12:24:50.084Z,1013.7
2015-10-23T12:25:49.789Z,1013.6
2015-10-23T12:26:49.743Z,1013.5
2015-10-23T12:27:49.698Z,1013.7
2015-10-23T12:28:49.638Z,1013.7
2015-10-23T12:29:49.594Z,1013.6
2015-10-23T12:30:49.534Z,1013.7
2015-10-23T12:31:49.473Z,1013.7
2015-10-23T12:32:49.273Z,1013.7